sensor_id;sensor_type;location;lat;lon;timestamp;P1;durP1;ratioP1;P2;durP2;ratioP2
974;SDS011;6115;49.296;10.602;2023-07-02T00:03:13;1.60;;;1.10;;
974;SDS011;6115;49.296;10.602;2023-07-02T00:08:14;2.20;;;1.40;;
974;SDS011;6115;49.296;10.602;2023-07-02T00:13:14;2.03;;;1.50;;
974;SDS011;6115;49.296;10.602;2023-07-02T00:18:15;2.20;;;1.40;;
974;SDS011;6115;49.296;10.602;2023-07-02T00:23:16;1.60;;;1.20;;
974;SDS011;6115;49.296;10.602;2023-07-02T00:28:16;1.97;;;1.43;;
974;SDS011;6115;49.296;10.602;2023-07-02T00:33:17;2.07;;;1.37;;
974;SDS011;6115;49.296;10.602;2023-07-02T00:38:18;1.67;;;1.30;;
974;SDS011;6115;49.296;10.602;2023-07-02T00:43:18;4.03;;;1.43;;
974;SDS011;6115;49.296;10.602;2023-07-02T00:48:19;1.87;;;1.47;;
974;SDS011;6115;49.296;10.602;2023-07-02T00:53:20;1.83;;;1.40;;
974;SDS011;6115;49.296;10.602;2023-07-02T00:58:20;2.77;;;1.63;;
974;SDS011;6115;49.296;10.602;2023-07-02T01:03:21;2.13;;;1.40;;
974;SDS011;6115;49.296;10.602;2023-07-02T01:08:22;2.77;;;1.73;;
974;SDS011;6115;49.296;10.602;2023-07-02T01:13:22;1.67;;;1.43;;
974;SDS011;6115;49.296;10.602;2023-07-02T01:18:25;2.90;;;1.80;;
974;SDS011;6115;49.296;10.602;2023-07-02T01:23:26;1.90;;;1.40;;
974;SDS011;6115;49.296;10.602;2023-07-02T01:28:33;2.07;;;1.40;;
974;SDS011;6115;49.296;10.602;2023-07-02T01:33:35;2.60;;;1.77;;
974;SDS011;6115;49.296;10.602;2023-07-02T01:38:36;2.17;;;1.50;;
974;SDS011;6115;49.296;10.602;2023-07-02T01:43:37;2.20;;;1.70;;
974;SDS011;6115;49.296;10.602;2023-07-02T01:48:37;1.60;;;1.07;;
974;SDS011;6115;49.296;10.602;2023-07-02T01:53:38;1.67;;;1.17;;
974;SDS011;6115;49.296;10.602;2023-07-02T01:58:38;1.40;;;1.10;;
974;SDS011;6115;49.296;10.602;2023-07-02T02:03:39;1.43;;;1.10;;
974;SDS011;6115;49.296;10.602;2023-07-02T02:08:39;1.93;;;1.73;;
974;SDS011;6115;49.296;10.602;2023-07-02T02:13:40;2.07;;;1.17;;
974;SDS011;6115;49.296;10.602;2023-07-02T02:18:40;1.37;;;1.10;;
974;SDS011;6115;49.296;10.602;2023-07-02T02:23:41;2.37;;;1.37;;
974;SDS011;6115;49.296;10.602;2023-07-02T02:28:42;3.70;;;1.20;;
974;SDS011;6115;49.296;10.602;2023-07-02T02:33:43;1.37;;;1.07;;
974;SDS011;6115;49.296;10.602;2023-07-02T02:38:44;1.43;;;0.97;;
974;SDS011;6115;49.296;10.602;2023-07-02T02:43:44;2.30;;;1.50;;
974;SDS011;6115;49.296;10.602;2023-07-02T02:48:45;1.97;;;1.23;;
974;SDS011;6115;49.296;10.602;2023-07-02T02:53:45;1.73;;;1.20;;
974;SDS011;6115;49.296;10.602;2023-07-02T02:58:46;1.67;;;1.20;;
974;SDS011;6115;49.296;10.602;2023-07-02T03:03:46;2.03;;;1.63;;
974;SDS011;6115;49.296;10.602;2023-07-02T03:08:47;3.13;;;1.57;;
974;SDS011;6115;49.296;10.602;2023-07-02T03:13:48;1.80;;;1.50;;
974;SDS011;6115;49.296;10.602;2023-07-02T03:18:49;1.50;;;1.20;;
974;SDS011;6115;49.296;10.602;2023-07-02T03:23:49;3.43;;;1.23;;
974;SDS011;6115;49.296;10.602;2023-07-02T03:28:50;3.13;;;1.90;;
974;SDS011;6115;49.296;10.602;2023-07-02T03:33:50;3.33;;;1.97;;
974;SDS011;6115;49.296;10.602;2023-07-02T03:38:51;3.10;;;1.50;;
974;SDS011;6115;49.296;10.602;2023-07-02T03:43:52;2.03;;;1.60;;
974;SDS011;6115;49.296;10.602;2023-07-02T03:48:53;1.83;;;1.30;;
974;SDS011;6115;49.296;10.602;2023-07-02T03:53:53;1.57;;;1.07;;
974;SDS011;6115;49.296;10.602;2023-07-02T03:58:54;2.53;;;1.57;;
974;SDS011;6115;49.296;10.602;2023-07-02T04:03:56;1.97;;;1.30;;
974;SDS011;6115;49.296;10.602;2023-07-02T04:08:57;1.70;;;1.47;;
974;SDS011;6115;49.296;10.602;2023-07-02T04:13:57;1.30;;;0.90;;
974;SDS011;6115;49.296;10.602;2023-07-02T04:18:58;2.00;;;1.30;;
974;SDS011;6115;49.296;10.602;2023-07-02T04:23:58;1.80;;;1.40;;
974;SDS011;6115;49.296;10.602;2023-07-02T04:28:59;1.90;;;1.30;;
974;SDS011;6115;49.296;10.602;2023-07-02T04:34:00;2.20;;;1.60;;
974;SDS011;6115;49.296;10.602;2023-07-02T04:39:00;1.40;;;1.03;;
974;SDS011;6115;49.296;10.602;2023-07-02T04:44:01;2.03;;;1.53;;
974;SDS011;6115;49.296;10.602;2023-07-02T04:49:02;1.70;;;1.43;;
974;SDS011;6115;49.296;10.602;2023-07-02T04:54:02;4.17;;;1.63;;
974;SDS011;6115;49.296;10.602;2023-07-02T04:59:03;2.57;;;1.80;;
974;SDS011;6115;49.296;10.602;2023-07-02T05:04:05;4.87;;;2.10;;
974;SDS011;6115;49.296;10.602;2023-07-02T05:09:05;2.90;;;1.83;;
974;SDS011;6115;49.296;10.602;2023-07-02T05:14:06;4.93;;;2.60;;
974;SDS011;6115;49.296;10.602;2023-07-02T05:19:06;4.40;;;1.93;;
974;SDS011;6115;49.296;10.602;2023-07-02T05:24:07;2.90;;;1.80;;
974;SDS011;6115;49.296;10.602;2023-07-02T05:29:09;3.67;;;2.30;;
974;SDS011;6115;49.296;10.602;2023-07-02T05:34:10;2.40;;;2.20;;
974;SDS011;6115;49.296;10.602;2023-07-02T05:39:11;4.97;;;2.90;;
974;SDS011;6115;49.296;10.602;2023-07-02T05:44:11;3.17;;;2.20;;
974;SDS011;6115;49.296;10.602;2023-07-02T05:49:12;8.37;;;2.60;;
974;SDS011;6115;49.296;10.602;2023-07-02T05:54:12;7.00;;;2.40;;
974;SDS011;6115;49.296;10.602;2023-07-02T05:59:13;5.50;;;2.73;;
974;SDS011;6115;49.296;10.602;2023-07-02T06:04:17;4.37;;;2.90;;
974;SDS011;6115;49.296;10.602;2023-07-02T06:09:18;6.00;;;2.77;;
974;SDS011;6115;49.296;10.602;2023-07-02T06:14:18;7.03;;;3.07;;
974;SDS011;6115;49.296;10.602;2023-07-02T06:19:19;3.60;;;2.30;;
974;SDS011;6115;49.296;10.602;2023-07-02T06:24:20;2.60;;;1.63;;
974;SDS011;6115;49.296;10.602;2023-07-02T06:34:24;5.53;;;2.80;;
974;SDS011;6115;49.296;10.602;2023-07-02T06:39:25;3.53;;;2.67;;
974;SDS011;6115;49.296;10.602;2023-07-02T06:44:26;6.13;;;2.90;;
974;SDS011;6115;49.296;10.602;2023-07-02T06:49:26;4.63;;;2.50;;
974;SDS011;6115;49.296;10.602;2023-07-02T06:54:27;4.70;;;3.13;;
974;SDS011;6115;49.296;10.602;2023-07-02T06:59:27;4.77;;;2.60;;
974;SDS011;6115;49.296;10.602;2023-07-02T07:04:28;4.53;;;3.47;;
974;SDS011;6115;49.296;10.602;2023-07-02T07:09:29;5.10;;;2.90;;
974;SDS011;6115;49.296;10.602;2023-07-02T07:14:30;4.60;;;2.60;;
974;SDS011;6115;49.296;10.602;2023-07-02T07:19:30;5.37;;;3.30;;
974;SDS011;6115;49.296;10.602;2023-07-02T07:24:31;5.70;;;2.87;;
974;SDS011;6115;49.296;10.602;2023-07-02T07:29:31;5.60;;;3.27;;
974;SDS011;6115;49.296;10.602;2023-07-02T07:34:32;4.67;;;3.20;;
974;SDS011;6115;49.296;10.602;2023-07-02T07:39:32;4.80;;;3.10;;
974;SDS011;6115;49.296;10.602;2023-07-02T07:44:33;4.90;;;3.20;;
974;SDS011;6115;49.296;10.602;2023-07-02T07:49:39;5.10;;;3.27;;
974;SDS011;6115;49.296;10.602;2023-07-02T07:54:39;5.00;;;3.20;;
974;SDS011;6115;49.296;10.602;2023-07-02T07:59:40;4.80;;;3.33;;
974;SDS011;6115;49.296;10.602;2023-07-02T08:04:40;6.63;;;3.10;;
974;SDS011;6115;49.296;10.602;2023-07-02T08:09:41;8.77;;;4.57;;
974;SDS011;6115;49.296;10.602;2023-07-02T08:14:42;3.60;;;2.47;;
974;SDS011;6115;49.296;10.602;2023-07-02T08:19:42;5.50;;;3.53;;
974;SDS011;6115;49.296;10.602;2023-07-02T08:24:43;6.13;;;2.87;;
974;SDS011;6115;49.296;10.602;2023-07-02T08:29:43;5.80;;;2.93;;
974;SDS011;6115;49.296;10.602;2023-07-02T08:34:44;5.43;;;3.03;;
974;SDS011;6115;49.296;10.602;2023-07-02T08:39:44;3.53;;;2.50;;
974;SDS011;6115;49.296;10.602;2023-07-02T08:44:45;4.63;;;3.00;;
974;SDS011;6115;49.296;10.602;2023-07-02T08:49:47;6.17;;;3.37;;
974;SDS011;6115;49.296;10.602;2023-07-02T08:54:48;2.67;;;2.20;;
974;SDS011;6115;49.296;10.602;2023-07-02T08:59:49;3.30;;;1.90;;
974;SDS011;6115;49.296;10.602;2023-07-02T09:04:58;3.80;;;2.00;;
974;SDS011;6115;49.296;10.602;2023-07-02T09:10:02;2.63;;;2.00;;
974;SDS011;6115;49.296;10.602;2023-07-02T09:15:04;4.00;;;2.40;;
974;SDS011;6115;49.296;10.602;2023-07-02T09:20:10;2.73;;;1.83;;
974;SDS011;6115;49.296;10.602;2023-07-02T09:25:11;3.80;;;2.63;;
974;SDS011;6115;49.296;10.602;2023-07-02T09:30:12;3.33;;;2.60;;
974;SDS011;6115;49.296;10.602;2023-07-02T09:35:18;6.50;;;2.53;;
974;SDS011;6115;49.296;10.602;2023-07-02T09:40:18;3.40;;;2.63;;
974;SDS011;6115;49.296;10.602;2023-07-02T09:45:20;4.67;;;2.43;;
974;SDS011;6115;49.296;10.602;2023-07-02T09:50:21;6.80;;;3.23;;
974;SDS011;6115;49.296;10.602;2023-07-02T09:55:22;5.70;;;3.90;;
974;SDS011;6115;49.296;10.602;2023-07-02T10:00:23;5.37;;;3.00;;
974;SDS011;6115;49.296;10.602;2023-07-02T10:10:29;7.33;;;4.33;;
974;SDS011;6115;49.296;10.602;2023-07-02T10:15:30;6.73;;;3.87;;
974;SDS011;6115;49.296;10.602;2023-07-02T10:20:40;6.57;;;3.47;;
974;SDS011;6115;49.296;10.602;2023-07-02T10:25:41;7.00;;;3.40;;
974;SDS011;6115;49.296;10.602;2023-07-02T10:30:42;5.40;;;3.47;;
974;SDS011;6115;49.296;10.602;2023-07-02T10:35:43;7.10;;;4.10;;
974;SDS011;6115;49.296;10.602;2023-07-02T10:40:53;8.40;;;4.57;;
974;SDS011;6115;49.296;10.602;2023-07-02T10:46:03;10.30;;;4.53;;
974;SDS011;6115;49.296;10.602;2023-07-02T10:51:11;5.57;;;3.83;;
974;SDS011;6115;49.296;10.602;2023-07-02T10:56:16;4.67;;;3.60;;
974;SDS011;6115;49.296;10.602;2023-07-02T11:01:30;4.90;;;3.50;;
974;SDS011;6115;49.296;10.602;2023-07-02T11:06:31;5.37;;;4.07;;
974;SDS011;6115;49.296;10.602;2023-07-02T11:11:33;7.67;;;4.40;;
974;SDS011;6115;49.296;10.602;2023-07-02T11:16:33;6.37;;;3.40;;
974;SDS011;6115;49.296;10.602;2023-07-02T11:21:35;7.63;;;3.90;;
974;SDS011;6115;49.296;10.602;2023-07-02T11:26:37;6.10;;;3.70;;
974;SDS011;6115;49.296;10.602;2023-07-02T11:31:38;5.77;;;4.00;;
974;SDS011;6115;49.296;10.602;2023-07-02T11:36:39;6.50;;;4.53;;
974;SDS011;6115;49.296;10.602;2023-07-02T11:41:40;8.50;;;4.47;;
974;SDS011;6115;49.296;10.602;2023-07-02T11:46:42;5.77;;;4.03;;
974;SDS011;6115;49.296;10.602;2023-07-02T11:51:43;8.73;;;4.70;;
974;SDS011;6115;49.296;10.602;2023-07-02T11:56:48;5.33;;;3.87;;
974;SDS011;6115;49.296;10.602;2023-07-02T12:01:48;6.47;;;4.30;;
974;SDS011;6115;49.296;10.602;2023-07-02T12:06:49;6.97;;;4.23;;
974;SDS011;6115;49.296;10.602;2023-07-02T12:11:49;4.90;;;3.43;;
974;SDS011;6115;49.296;10.602;2023-07-02T12:16:50;6.60;;;4.37;;
974;SDS011;6115;49.296;10.602;2023-07-02T12:21:51;7.37;;;4.07;;
974;SDS011;6115;49.296;10.602;2023-07-02T12:26:51;6.27;;;4.50;;
974;SDS011;6115;49.296;10.602;2023-07-02T12:31:52;7.03;;;4.70;;
974;SDS011;6115;49.296;10.602;2023-07-02T12:36:52;6.90;;;4.40;;
974;SDS011;6115;49.296;10.602;2023-07-02T12:41:53;7.60;;;4.60;;
974;SDS011;6115;49.296;10.602;2023-07-02T12:46:53;5.03;;;4.00;;
974;SDS011;6115;49.296;10.602;2023-07-02T12:51:54;6.73;;;4.60;;
974;SDS011;6115;49.296;10.602;2023-07-02T12:56:54;7.80;;;5.23;;
974;SDS011;6115;49.296;10.602;2023-07-02T13:01:55;8.10;;;4.87;;
974;SDS011;6115;49.296;10.602;2023-07-02T13:06:57;8.40;;;4.93;;
974;SDS011;6115;49.296;10.602;2023-07-02T13:11:57;8.83;;;4.90;;
974;SDS011;6115;49.296;10.602;2023-07-02T13:16:58;6.33;;;4.20;;
974;SDS011;6115;49.296;10.602;2023-07-02T13:22:00;7.03;;;4.30;;
974;SDS011;6115;49.296;10.602;2023-07-02T13:27:02;6.93;;;5.20;;
974;SDS011;6115;49.296;10.602;2023-07-02T13:32:04;7.50;;;4.80;;
974;SDS011;6115;49.296;10.602;2023-07-02T13:37:05;7.60;;;4.30;;
974;SDS011;6115;49.296;10.602;2023-07-02T13:42:06;7.73;;;5.70;;
974;SDS011;6115;49.296;10.602;2023-07-02T13:47:07;7.40;;;4.87;;
974;SDS011;6115;49.296;10.602;2023-07-02T13:52:08;7.30;;;4.83;;
974;SDS011;6115;49.296;10.602;2023-07-02T13:57:09;8.90;;;4.53;;
974;SDS011;6115;49.296;10.602;2023-07-02T14:02:09;9.93;;;5.40;;
974;SDS011;6115;49.296;10.602;2023-07-02T14:07:10;7.53;;;5.07;;
974;SDS011;6115;49.296;10.602;2023-07-02T14:12:11;9.67;;;5.37;;
974;SDS011;6115;49.296;10.602;2023-07-02T14:17:12;7.67;;;5.07;;
974;SDS011;6115;49.296;10.602;2023-07-02T14:22:12;9.47;;;5.60;;
974;SDS011;6115;49.296;10.602;2023-07-02T14:27:13;6.73;;;4.93;;
974;SDS011;6115;49.296;10.602;2023-07-02T14:32:14;7.13;;;4.97;;
974;SDS011;6115;49.296;10.602;2023-07-02T14:37:15;6.20;;;4.37;;
974;SDS011;6115;49.296;10.602;2023-07-02T14:42:16;6.50;;;4.53;;
974;SDS011;6115;49.296;10.602;2023-07-02T14:47:16;12.43;;;5.10;;
974;SDS011;6115;49.296;10.602;2023-07-02T14:52:17;8.13;;;5.53;;
974;SDS011;6115;49.296;10.602;2023-07-02T14:57:19;6.50;;;3.90;;
974;SDS011;6115;49.296;10.602;2023-07-02T15:02:21;7.20;;;4.53;;
974;SDS011;6115;49.296;10.602;2023-07-02T15:07:22;6.97;;;4.70;;
974;SDS011;6115;49.296;10.602;2023-07-02T15:12:23;8.17;;;5.17;;
974;SDS011;6115;49.296;10.602;2023-07-02T15:17:24;6.53;;;4.80;;
974;SDS011;6115;49.296;10.602;2023-07-02T15:22:24;6.40;;;4.30;;
974;SDS011;6115;49.296;10.602;2023-07-02T15:27:25;9.07;;;5.67;;
974;SDS011;6115;49.296;10.602;2023-07-02T15:32:26;7.30;;;4.83;;
974;SDS011;6115;49.296;10.602;2023-07-02T15:37:26;9.67;;;5.30;;
974;SDS011;6115;49.296;10.602;2023-07-02T15:42:27;8.23;;;5.27;;
974;SDS011;6115;49.296;10.602;2023-07-02T15:47:29;10.50;;;4.80;;
974;SDS011;6115;49.296;10.602;2023-07-02T15:52:30;12.47;;;4.80;;
974;SDS011;6115;49.296;10.602;2023-07-02T15:57:30;7.80;;;5.60;;
974;SDS011;6115;49.296;10.602;2023-07-02T16:02:31;8.17;;;4.87;;
974;SDS011;6115;49.296;10.602;2023-07-02T16:07:31;7.97;;;5.13;;
974;SDS011;6115;49.296;10.602;2023-07-02T16:12:32;6.90;;;4.70;;
974;SDS011;6115;49.296;10.602;2023-07-02T16:17:34;9.17;;;6.30;;
974;SDS011;6115;49.296;10.602;2023-07-02T16:22:35;8.97;;;5.33;;
974;SDS011;6115;49.296;10.602;2023-07-02T16:27:35;7.33;;;4.67;;
974;SDS011;6115;49.296;10.602;2023-07-02T16:32:36;8.57;;;5.73;;
974;SDS011;6115;49.296;10.602;2023-07-02T16:37:37;7.87;;;5.30;;
974;SDS011;6115;49.296;10.602;2023-07-02T16:42:37;9.00;;;4.97;;
974;SDS011;6115;49.296;10.602;2023-07-02T16:47:38;8.20;;;4.90;;
974;SDS011;6115;49.296;10.602;2023-07-02T16:52:38;7.07;;;4.33;;
974;SDS011;6115;49.296;10.602;2023-07-02T16:57:39;8.80;;;5.20;;
974;SDS011;6115;49.296;10.602;2023-07-02T17:02:39;9.33;;;5.70;;
974;SDS011;6115;49.296;10.602;2023-07-02T17:07:40;9.60;;;5.90;;
974;SDS011;6115;49.296;10.602;2023-07-02T17:12:41;11.53;;;5.50;;
974;SDS011;6115;49.296;10.602;2023-07-02T17:17:41;11.97;;;5.80;;
974;SDS011;6115;49.296;10.602;2023-07-02T17:22:42;9.17;;;4.73;;
974;SDS011;6115;49.296;10.602;2023-07-02T17:27:43;10.53;;;6.00;;
974;SDS011;6115;49.296;10.602;2023-07-02T17:32:43;9.13;;;5.40;;
974;SDS011;6115;49.296;10.602;2023-07-02T17:37:44;8.47;;;5.53;;
974;SDS011;6115;49.296;10.602;2023-07-02T17:42:44;8.70;;;5.13;;
974;SDS011;6115;49.296;10.602;2023-07-02T17:47:45;7.30;;;5.53;;
974;SDS011;6115;49.296;10.602;2023-07-02T17:52:46;11.20;;;5.57;;
974;SDS011;6115;49.296;10.602;2023-07-02T17:57:46;9.87;;;4.80;;
974;SDS011;6115;49.296;10.602;2023-07-02T18:02:47;12.60;;;6.07;;
974;SDS011;6115;49.296;10.602;2023-07-02T18:07:48;7.40;;;4.73;;
974;SDS011;6115;49.296;10.602;2023-07-02T18:12:49;8.60;;;4.53;;
974;SDS011;6115;49.296;10.602;2023-07-02T18:17:50;7.30;;;5.03;;
974;SDS011;6115;49.296;10.602;2023-07-02T18:22:50;10.10;;;5.20;;
974;SDS011;6115;49.296;10.602;2023-07-02T18:28:00;7.83;;;4.53;;
974;SDS011;6115;49.296;10.602;2023-07-02T18:33:04;8.67;;;4.70;;
974;SDS011;6115;49.296;10.602;2023-07-02T18:38:05;7.07;;;4.63;;
974;SDS011;6115;49.296;10.602;2023-07-02T18:43:06;8.30;;;5.17;;
974;SDS011;6115;49.296;10.602;2023-07-02T18:48:06;13.87;;;5.70;;
974;SDS011;6115;49.296;10.602;2023-07-02T18:53:08;9.30;;;5.50;;
974;SDS011;6115;49.296;10.602;2023-07-02T18:58:08;7.17;;;4.50;;
974;SDS011;6115;49.296;10.602;2023-07-02T19:03:09;7.90;;;4.70;;
974;SDS011;6115;49.296;10.602;2023-07-02T19:08:11;11.47;;;5.37;;
974;SDS011;6115;49.296;10.602;2023-07-02T19:13:12;12.30;;;6.40;;
974;SDS011;6115;49.296;10.602;2023-07-02T19:18:13;10.67;;;5.57;;
974;SDS011;6115;49.296;10.602;2023-07-02T19:23:14;8.13;;;5.27;;
974;SDS011;6115;49.296;10.602;2023-07-02T19:28:15;8.93;;;5.70;;
974;SDS011;6115;49.296;10.602;2023-07-02T19:33:16;8.93;;;5.83;;
974;SDS011;6115;49.296;10.602;2023-07-02T19:38:16;9.93;;;5.17;;
974;SDS011;6115;49.296;10.602;2023-07-02T19:43:17;9.57;;;5.10;;
974;SDS011;6115;49.296;10.602;2023-07-02T19:48:18;8.43;;;5.60;;
974;SDS011;6115;49.296;10.602;2023-07-02T19:53:19;10.13;;;5.17;;
974;SDS011;6115;49.296;10.602;2023-07-02T19:58:20;8.70;;;5.17;;
974;SDS011;6115;49.296;10.602;2023-07-02T20:03:21;8.40;;;5.60;;
974;SDS011;6115;49.296;10.602;2023-07-02T20:08:21;8.90;;;5.67;;
974;SDS011;6115;49.296;10.602;2023-07-02T20:13:22;9.10;;;6.10;;
974;SDS011;6115;49.296;10.602;2023-07-02T20:18:23;6.50;;;4.77;;
974;SDS011;6115;49.296;10.602;2023-07-02T20:23:24;10.20;;;4.83;;
974;SDS011;6115;49.296;10.602;2023-07-02T20:28:26;9.07;;;5.10;;
974;SDS011;6115;49.296;10.602;2023-07-02T20:33:27;9.93;;;6.13;;
974;SDS011;6115;49.296;10.602;2023-07-02T20:38:27;8.90;;;5.33;;
974;SDS011;6115;49.296;10.602;2023-07-02T20:43:30;7.90;;;4.57;;
974;SDS011;6115;49.296;10.602;2023-07-02T20:48:37;10.77;;;4.90;;
974;SDS011;6115;49.296;10.602;2023-07-02T20:53:43;7.83;;;5.10;;
974;SDS011;6115;49.296;10.602;2023-07-02T20:58:44;10.30;;;5.20;;
974;SDS011;6115;49.296;10.602;2023-07-02T21:03:44;9.50;;;5.50;;
974;SDS011;6115;49.296;10.602;2023-07-02T21:08:45;11.33;;;5.50;;
974;SDS011;6115;49.296;10.602;2023-07-02T21:13:45;9.80;;;5.73;;
974;SDS011;6115;49.296;10.602;2023-07-02T21:18:46;15.13;;;6.07;;
974;SDS011;6115;49.296;10.602;2023-07-02T21:23:46;9.73;;;5.30;;
974;SDS011;6115;49.296;10.602;2023-07-02T21:28:47;10.47;;;4.90;;
974;SDS011;6115;49.296;10.602;2023-07-02T21:33:47;12.40;;;5.13;;
974;SDS011;6115;49.296;10.602;2023-07-02T21:38:48;9.83;;;5.30;;
974;SDS011;6115;49.296;10.602;2023-07-02T21:43:48;12.90;;;5.17;;
974;SDS011;6115;49.296;10.602;2023-07-02T21:48:49;8.20;;;4.77;;
974;SDS011;6115;49.296;10.602;2023-07-02T21:53:49;16.10;;;5.70;;
974;SDS011;6115;49.296;10.602;2023-07-02T21:58:50;9.60;;;5.30;;
974;SDS011;6115;49.296;10.602;2023-07-02T22:03:51;8.77;;;5.10;;
974;SDS011;6115;49.296;10.602;2023-07-02T22:08:51;10.80;;;5.60;;
974;SDS011;6115;49.296;10.602;2023-07-02T22:13:52;9.77;;;5.33;;
974;SDS011;6115;49.296;10.602;2023-07-02T22:18:52;9.57;;;5.23;;
974;SDS011;6115;49.296;10.602;2023-07-02T22:23:53;8.23;;;4.87;;
974;SDS011;6115;49.296;10.602;2023-07-02T22:28:53;9.37;;;5.27;;
974;SDS011;6115;49.296;10.602;2023-07-02T22:33:54;9.07;;;5.37;;
974;SDS011;6115;49.296;10.602;2023-07-02T22:38:55;8.50;;;5.40;;
974;SDS011;6115;49.296;10.602;2023-07-02T22:43:55;12.67;;;4.40;;
974;SDS011;6115;49.296;10.602;2023-07-02T22:48:56;9.93;;;4.90;;
974;SDS011;6115;49.296;10.602;2023-07-02T22:53:56;10.23;;;5.10;;
974;SDS011;6115;49.296;10.602;2023-07-02T22:58:57;10.20;;;5.40;;
974;SDS011;6115;49.296;10.602;2023-07-02T23:03:58;13.73;;;4.87;;
974;SDS011;6115;49.296;10.602;2023-07-02T23:08:58;9.90;;;5.40;;
974;SDS011;6115;49.296;10.602;2023-07-02T23:13:59;8.50;;;5.77;;
974;SDS011;6115;49.296;10.602;2023-07-02T23:18:59;10.17;;;5.97;;
974;SDS011;6115;49.296;10.602;2023-07-02T23:24:00;12.47;;;6.77;;
974;SDS011;6115;49.296;10.602;2023-07-02T23:29:00;9.40;;;4.67;;
974;SDS011;6115;49.296;10.602;2023-07-02T23:34:01;10.90;;;6.23;;
974;SDS011;6115;49.296;10.602;2023-07-02T23:39:02;7.53;;;4.67;;
974;SDS011;6115;49.296;10.602;2023-07-02T23:44:03;8.60;;;5.00;;
974;SDS011;6115;49.296;10.602;2023-07-02T23:49:04;9.40;;;4.83;;
974;SDS011;6115;49.296;10.602;2023-07-02T23:54:05;9.33;;;5.20;;
974;SDS011;6115;49.296;10.602;2023-07-02T23:59:05;9.43;;;5.30;;
